SAS409 ESSA-EKCH
Flight info
| Callsign | SAS409 |
|---|---|
| Flight time | 0h 52m |
| Altitude | 36000 |
| Route | PETEV N872 ELPAX DCT TOKSI N872 ERNOV |
| Aircraft | A320/M-SDE3FGHIJ1RWXYZ/ALB1 |
Departure
| Time | 2026-05-04 16:03 |
|---|---|
| Airport | Stockholm-Arlanda Airport (ESSA) |
Arrival
| Time | 2026-05-04 16:56 |
|---|---|
| Airport | Copenhagen Kastrup Airport (EKCH) |
| Time | Latitude | Longitude | Altitude | Speed | Heading |
|---|---|---|---|---|---|
| 2026-05-04 15:07 | 59.65330 | 17.93138 | 110 ft | 0 kts | 250° |
| 2026-05-04 15:56 | 59.65335 | 17.93162 | 112 ft | 4 kts | 250° |
| 2026-05-04 15:57 | 59.65344 | 17.93212 | 109 ft | 4 kts | 251° |
| 2026-05-04 15:57 | 59.65350 | 17.93262 | 110 ft | 4 kts | 276° |
| 2026-05-04 15:57 | 59.65344 | 17.93291 | 112 ft | 0 kts | 340° |
| 2026-05-04 15:59 | 59.65349 | 17.93287 | 112 ft | 2 kts | 340° |
| 2026-05-04 15:59 | 59.65374 | 17.93273 | 110 ft | 5 kts | 344° |
| 2026-05-04 16:00 | 59.65419 | 17.93249 | 110 ft | 8 kts | 345° |
| 2026-05-04 16:00 | 59.65479 | 17.93193 | 112 ft | 11 kts | 328° |
| 2026-05-04 16:00 | 59.65503 | 17.93063 | 112 ft | 12 kts | 258° |
| 2026-05-04 16:00 | 59.65473 | 17.92887 | 112 ft | 15 kts | 250° |
| 2026-05-04 16:01 | 59.65431 | 17.92689 | 111 ft | 13 kts | 254° |
| 2026-05-04 16:01 | 59.65489 | 17.92566 | 106 ft | 17 kts | 333° |
| 2026-05-04 16:01 | 59.65616 | 17.92484 | 104 ft | 22 kts | 346° |
| 2026-05-04 16:01 | 59.65766 | 17.92424 | 105 ft | 22 kts | 2° |
| 2026-05-04 16:02 | 59.65896 | 17.92435 | 107 ft | 13 kts | 329° |
| 2026-05-04 16:02 | 59.65919 | 17.92279 | 112 ft | 13 kts | 279° |
| 2026-05-04 16:02 | 59.65698 | 17.92035 | 109 ft | 64 kts | 190° |
| 2026-05-04 16:03 | 59.65044 | 17.91799 | 104 ft | 127 kts | 190° |
| 2026-05-04 16:03 | 59.64036 | 17.91406 | 308 ft | 158 kts | 194° |
| 2026-05-04 16:03 | 59.62928 | 17.90994 | 1114 ft | 160 kts | 195° |
| 2026-05-04 16:03 | 59.61812 | 17.90549 | 1594 ft | 177 kts | 203° |
| 2026-05-04 16:04 | 59.60729 | 17.89104 | 1843 ft | 200 kts | 237° |
| 2026-05-04 16:04 | 59.59327 | 17.84319 | 3705 ft | 204 kts | 243° |
| 2026-05-04 16:04 | 59.58625 | 17.81857 | 4679 ft | 207 kts | 243° |
| 2026-05-04 16:05 | 59.57939 | 17.79228 | 5314 ft | 227 kts | 246° |
| 2026-05-04 16:05 | 59.57213 | 17.76277 | 5827 ft | 251 kts | 246° |
| 2026-05-04 16:05 | 59.54957 | 17.70323 | 7090 ft | 285 kts | 231° |
| 2026-05-04 16:06 | 59.53586 | 17.67479 | 8066 ft | 286 kts | 230° |
| 2026-05-04 16:06 | 59.49848 | 17.59856 | 10535 ft | 292 kts | 230° |
| 2026-05-04 16:07 | 59.48431 | 17.56982 | 11413 ft | 294 kts | 230° |
| 2026-05-04 16:07 | 59.44127 | 17.48237 | 13936 ft | 300 kts | 230° |
| 2026-05-04 16:08 | 59.42685 | 17.45315 | 14667 ft | 303 kts | 230° |
| 2026-05-04 16:08 | 59.38227 | 17.36281 | 16834 ft | 311 kts | 230° |
| 2026-05-04 16:09 | 59.35174 | 17.30124 | 18169 ft | 318 kts | 230° |
| 2026-05-04 16:09 | 59.32047 | 17.23886 | 19467 ft | 325 kts | 228° |
| 2026-05-04 16:10 | 59.28599 | 17.17979 | 20680 ft | 334 kts | 225° |
| 2026-05-04 16:11 | 59.23163 | 17.09134 | 22530 ft | 344 kts | 225° |
| 2026-05-04 16:11 | 59.21316 | 17.06136 | 23152 ft | 347 kts | 225° |
| 2026-05-04 16:12 | 59.15683 | 16.96916 | 24644 ft | 358 kts | 226° |
| 2026-05-04 16:12 | 59.09896 | 16.87382 | 26013 ft | 369 kts | 226° |
| 2026-05-04 16:13 | 59.05932 | 16.80876 | 26817 ft | 378 kts | 226° |
| 2026-05-04 16:13 | 59.01877 | 16.74273 | 27720 ft | 383 kts | 227° |
| 2026-05-04 16:14 | 58.97782 | 16.67636 | 28573 ft | 389 kts | 227° |
| 2026-05-04 16:14 | 58.93563 | 16.60799 | 29388 ft | 396 kts | 226° |
| 2026-05-04 16:15 | 58.87170 | 16.50488 | 30510 ft | 405 kts | 226° |
| 2026-05-04 16:16 | 58.82786 | 16.43452 | 31210 ft | 410 kts | 226° |
| 2026-05-04 16:16 | 58.76186 | 16.32897 | 32436 ft | 412 kts | 225° |
| 2026-05-04 16:17 | 58.71778 | 16.25891 | 33492 ft | 409 kts | 225° |
| 2026-05-04 16:18 | 58.65219 | 16.15493 | 34784 ft | 407 kts | 225° |
| 2026-05-04 16:18 | 58.63036 | 16.12040 | 35153 ft | 407 kts | 225° |
| 2026-05-04 16:19 | 58.56475 | 16.01710 | 36151 ft | 408 kts | 224° |
| 2026-05-04 16:19 | 58.52087 | 15.94835 | 36824 ft | 408 kts | 224° |
| 2026-05-04 16:20 | 58.45509 | 15.84539 | 37725 ft | 408 kts | 223° |
| 2026-05-04 16:20 | 58.41124 | 15.77707 | 37755 ft | 406 kts | 223° |
| 2026-05-04 16:22 | 58.30158 | 15.60741 | 37758 ft | 407 kts | 223° |
| 2026-05-04 16:23 | 58.16972 | 15.40527 | 37764 ft | 407 kts | 223° |
| 2026-05-04 16:25 | 58.03702 | 15.20413 | 37750 ft | 408 kts | 223° |
| 2026-05-04 16:26 | 57.88170 | 14.97062 | 37775 ft | 408 kts | 222° |
| 2026-05-04 16:28 | 57.77066 | 14.80549 | 37787 ft | 408 kts | 222° |
| 2026-05-04 16:29 | 57.61377 | 14.57657 | 37788 ft | 409 kts | 221° |
| 2026-05-04 16:31 | 57.49999 | 14.41638 | 37822 ft | 411 kts | 221° |
| 2026-05-04 16:32 | 57.36314 | 14.22470 | 37744 ft | 410 kts | 221° |
| 2026-05-04 16:33 | 57.31762 | 14.16104 | 36545 ft | 411 kts | 221° |
| 2026-05-04 16:33 | 57.27180 | 14.09749 | 35380 ft | 411 kts | 221° |
| 2026-05-04 16:34 | 57.22629 | 14.03496 | 34518 ft | 406 kts | 221° |
| 2026-05-04 16:34 | 57.20364 | 14.00406 | 34094 ft | 404 kts | 221° |
| 2026-05-04 16:35 | 57.13640 | 13.91280 | 32633 ft | 396 kts | 221° |
| 2026-05-04 16:35 | 57.07068 | 13.82233 | 31220 ft | 390 kts | 221° |
| 2026-05-04 16:36 | 57.04914 | 13.79231 | 30784 ft | 388 kts | 221° |
| 2026-05-04 16:36 | 57.00701 | 13.73232 | 29900 ft | 384 kts | 222° |
| 2026-05-04 16:37 | 56.96514 | 13.67233 | 28874 ft | 380 kts | 222° |
| 2026-05-04 16:37 | 56.94429 | 13.64267 | 28372 ft | 378 kts | 222° |
| 2026-05-04 16:37 | 56.90131 | 13.58764 | 27376 ft | 381 kts | 207° |
| 2026-05-04 16:38 | 56.85125 | 13.55516 | 26443 ft | 381 kts | 204° |
| 2026-05-04 16:39 | 56.77640 | 13.50904 | 25093 ft | 376 kts | 204° |
| 2026-05-04 16:39 | 56.72693 | 13.47868 | 24234 ft | 374 kts | 204° |
| 2026-05-04 16:40 | 56.67787 | 13.44865 | 23378 ft | 370 kts | 204° |
| 2026-05-04 16:40 | 56.62941 | 13.41889 | 22368 ft | 365 kts | 204° |
| 2026-05-04 16:41 | 56.58162 | 13.38956 | 21408 ft | 359 kts | 204° |
| 2026-05-04 16:41 | 56.51150 | 13.34673 | 20032 ft | 349 kts | 204° |
| 2026-05-04 16:42 | 56.44331 | 13.30526 | 18668 ft | 341 kts | 204° |
| 2026-05-04 16:43 | 56.39872 | 13.27818 | 17700 ft | 336 kts | 204° |
| 2026-05-04 16:43 | 56.35476 | 13.25161 | 16671 ft | 331 kts | 204° |
| 2026-05-04 16:43 | 56.33327 | 13.23869 | 16188 ft | 329 kts | 204° |
| 2026-05-04 16:44 | 56.24761 | 13.18711 | 14313 ft | 321 kts | 204° |
| 2026-05-04 16:45 | 56.20550 | 13.16185 | 13366 ft | 317 kts | 204° |
| 2026-05-04 16:46 | 56.14305 | 13.12455 | 11835 ft | 313 kts | 204° |
| 2026-05-04 16:46 | 56.10195 | 13.09998 | 10872 ft | 310 kts | 203° |
| 2026-05-04 16:47 | 56.06115 | 13.07573 | 9947 ft | 308 kts | 203° |
| 2026-05-04 16:47 | 56.02060 | 13.05168 | 8961 ft | 306 kts | 203° |
| 2026-05-04 16:48 | 55.96028 | 13.01591 | 7490 ft | 303 kts | 203° |
| 2026-05-04 16:48 | 55.94031 | 13.00410 | 7031 ft | 302 kts | 203° |
| 2026-05-04 16:49 | 55.90060 | 12.98065 | 6072 ft | 300 kts | 203° |
| 2026-05-04 16:49 | 55.86141 | 12.95766 | 5249 ft | 293 kts | 202° |
| 2026-05-04 16:50 | 55.82333 | 12.93535 | 4630 ft | 282 kts | 202° |
| 2026-05-04 16:50 | 55.78727 | 12.91386 | 4163 ft | 262 kts | 207° |
| 2026-05-04 16:51 | 55.76041 | 12.87816 | 3614 ft | 233 kts | 225° |
| 2026-05-04 16:51 | 55.74852 | 12.85942 | 3296 ft | 223 kts | 226° |
| 2026-05-04 16:51 | 55.72629 | 12.82467 | 2718 ft | 202 kts | 226° |
| 2026-05-04 16:52 | 55.70641 | 12.79364 | 2204 ft | 181 kts | 225° |
| 2026-05-04 16:52 | 55.69718 | 12.77925 | 1942 ft | 171 kts | 226° |
| 2026-05-04 16:53 | 55.68013 | 12.75270 | 1508 ft | 159 kts | 225° |
| 2026-05-04 16:53 | 55.65761 | 12.71770 | 913 ft | 129 kts | 228° |
| 2026-05-04 16:54 | 55.65087 | 12.70719 | 732 ft | 129 kts | 226° |
| 2026-05-04 16:55 | 55.62447 | 12.66609 | 45 ft | 126 kts | 226° |
| 2026-05-04 16:55 | 55.61468 | 12.65095 | 17 ft | 57 kts | 221° |
| 2026-05-04 16:56 | 55.61192 | 12.64302 | 17 ft | 23 kts | 252° |
| 2026-05-04 16:56 | 55.61387 | 12.64238 | 17 ft | 20 kts | 34° |
| 2026-05-04 16:57 | 55.61515 | 12.64385 | 17 ft | 24 kts | 32° |
| 2026-05-04 16:57 | 55.61772 | 12.64549 | 17 ft | 18 kts | 349° |
| 2026-05-04 16:58 | 55.62233 | 12.64399 | 16 ft | 21 kts | 352° |
| 2026-05-04 16:58 | 55.62354 | 12.64435 | 17 ft | 13 kts | 15° |
| 2026-05-04 16:59 | 55.62489 | 12.64291 | 17 ft | 16 kts | 305° |
| 2026-05-04 17:00 | 55.62715 | 12.64410 | 17 ft | 3 kts | 104° |
| 2026-05-04 17:00 | 55.62710 | 12.64455 | 17 ft | 0 kts | 101° |